MAH441 LWSK-LHBP
Flight info
| Callsign | MAH441 |
|---|---|
| Flight time | 1h 0m |
| Altitude | 40000 |
| Route | SIN N128 RAXAD DCT VAGEN DCT PARAK DCT KEZAL |
| Aircraft | B737/M-SDFGIRWY/S |
Departure
| Time | 2026-05-08 13:28 |
|---|---|
| Airport | Skopje International Airport (LWSK) |
Arrival
| Time | 2026-05-08 14:28 |
|---|---|
| Airport | Budapest Liszt Ferenc International Airport (LHBP) |
| Time | Latitude | Longitude | Altitude | Speed | Heading |
|---|---|---|---|---|---|
| 2026-05-08 13:06 | 41.96103 | 21.62582 | 789 ft | 0 kts | 76° |
| 2026-05-08 13:17 | 41.96103 | 21.62581 | 789 ft | 0 kts | 77° |
| 2026-05-08 13:17 | 41.96101 | 21.62570 | 788 ft | 2 kts | 76° |
| 2026-05-08 13:17 | 41.96097 | 21.62551 | 788 ft | 1 kts | 76° |
| 2026-05-08 13:17 | 41.96095 | 21.62538 | 788 ft | 2 kts | 56° |
| 2026-05-08 13:18 | 41.96083 | 21.62526 | 787 ft | 2 kts | 15° |
| 2026-05-08 13:18 | 41.96073 | 21.62525 | 787 ft | 0 kts | 348° |
| 2026-05-08 13:18 | 41.96065 | 21.62528 | 787 ft | 0 kts | 344° |
| 2026-05-08 13:21 | 41.96066 | 21.62527 | 787 ft | 0 kts | 346° |
| 2026-05-08 13:22 | 41.96080 | 21.62523 | 787 ft | 3 kts | 346° |
| 2026-05-08 13:22 | 41.96110 | 21.62512 | 787 ft | 5 kts | 341° |
| 2026-05-08 13:22 | 41.96120 | 21.62458 | 786 ft | 1 kts | 257° |
| 2026-05-08 13:22 | 41.96133 | 21.62423 | 785 ft | 9 kts | 335° |
| 2026-05-08 13:23 | 41.96215 | 21.62393 | 785 ft | 13 kts | 346° |
| 2026-05-08 13:23 | 41.96305 | 21.62362 | 786 ft | 13 kts | 346° |
| 2026-05-08 13:23 | 41.96395 | 21.62329 | 786 ft | 13 kts | 345° |
| 2026-05-08 13:23 | 41.96482 | 21.62299 | 787 ft | 12 kts | 346° |
| 2026-05-08 13:24 | 41.96567 | 21.62270 | 787 ft | 13 kts | 346° |
| 2026-05-08 13:24 | 41.96648 | 21.62243 | 787 ft | 10 kts | 347° |
| 2026-05-08 13:24 | 41.96716 | 21.62221 | 787 ft | 10 kts | 344° |
| 2026-05-08 13:24 | 41.96783 | 21.62195 | 787 ft | 9 kts | 345° |
| 2026-05-08 13:25 | 41.96849 | 21.62172 | 787 ft | 10 kts | 346° |
| 2026-05-08 13:25 | 41.96905 | 21.62119 | 786 ft | 10 kts | 306° |
| 2026-05-08 13:25 | 41.96955 | 21.62029 | 785 ft | 13 kts | 309° |
| 2026-05-08 13:25 | 41.97007 | 21.61925 | 783 ft | 13 kts | 275° |
| 2026-05-08 13:26 | 41.97055 | 21.61830 | 781 ft | 14 kts | 341° |
| 2026-05-08 13:26 | 41.97146 | 21.61798 | 780 ft | 11 kts | 342° |
| 2026-05-08 13:26 | 41.97207 | 21.61786 | 781 ft | 3 kts | 285° |
| 2026-05-08 13:26 | 41.97176 | 21.61787 | 780 ft | 0 kts | 163° |
| 2026-05-08 13:27 | 41.97148 | 21.61798 | 780 ft | 21 kts | 164° |
| 2026-05-08 13:27 | 41.96766 | 21.61935 | 781 ft | 90 kts | 165° |
| 2026-05-08 13:27 | 41.95963 | 21.62218 | 779 ft | 145 kts | 165° |
| 2026-05-08 13:28 | 41.94968 | 21.62544 | 1300 ft | 148 kts | 161° |
| 2026-05-08 13:28 | 41.93968 | 21.62872 | 1939 ft | 148 kts | 163° |
| 2026-05-08 13:28 | 41.92978 | 21.63214 | 2533 ft | 151 kts | 163° |
| 2026-05-08 13:28 | 41.91913 | 21.63588 | 3002 ft | 168 kts | 163° |
| 2026-05-08 13:29 | 41.90711 | 21.64003 | 3474 ft | 186 kts | 164° |
| 2026-05-08 13:29 | 41.89442 | 21.64424 | 4121 ft | 194 kts | 165° |
| 2026-05-08 13:29 | 41.88099 | 21.64878 | 4718 ft | 206 kts | 164° |
| 2026-05-08 13:29 | 41.86678 | 21.65374 | 5315 ft | 219 kts | 163° |
| 2026-05-08 13:30 | 41.85166 | 21.65902 | 5923 ft | 232 kts | 161° |
| 2026-05-08 13:30 | 41.83763 | 21.67032 | 6462 ft | 245 kts | 131° |
| 2026-05-08 13:30 | 41.83071 | 21.69150 | 7047 ft | 262 kts | 97° |
| 2026-05-08 13:30 | 41.83454 | 21.71554 | 7810 ft | 276 kts | 64° |
| 2026-05-08 13:31 | 41.84701 | 21.73543 | 8609 ft | 286 kts | 46° |
| 2026-05-08 13:31 | 41.86205 | 21.75309 | 9430 ft | 292 kts | 43° |
| 2026-05-08 13:31 | 41.87785 | 21.77035 | 10258 ft | 299 kts | 41° |
| 2026-05-08 13:31 | 41.89443 | 21.78817 | 10848 ft | 314 kts | 41° |
| 2026-05-08 13:32 | 41.91186 | 21.80699 | 11381 ft | 332 kts | 40° |
| 2026-05-08 13:32 | 41.93023 | 21.82696 | 11961 ft | 348 kts | 40° |
| 2026-05-08 13:32 | 41.94935 | 21.84775 | 12641 ft | 360 kts | 40° |
| 2026-05-08 13:32 | 41.96900 | 21.86903 | 13460 ft | 368 kts | 39° |
| 2026-05-08 13:33 | 41.98898 | 21.89070 | 14333 ft | 373 kts | 39° |
| 2026-05-08 13:33 | 42.00919 | 21.91272 | 15222 ft | 378 kts | 39° |
| 2026-05-08 13:33 | 42.02959 | 21.93505 | 16084 ft | 384 kts | 39° |
| 2026-05-08 13:33 | 42.05034 | 21.95780 | 16917 ft | 389 kts | 38° |
| 2026-05-08 13:34 | 42.07139 | 21.98090 | 17687 ft | 395 kts | 38° |
| 2026-05-08 13:34 | 42.09269 | 22.00428 | 18467 ft | 400 kts | 38° |
| 2026-05-08 13:34 | 42.11438 | 22.02808 | 19257 ft | 405 kts | 38° |
| 2026-05-08 13:34 | 42.13625 | 22.05210 | 20012 ft | 409 kts | 38° |
| 2026-05-08 13:35 | 42.15834 | 22.07639 | 20780 ft | 413 kts | 38° |
| 2026-05-08 13:35 | 42.18063 | 22.10092 | 21508 ft | 417 kts | 38° |
| 2026-05-08 13:35 | 42.20314 | 22.12567 | 22240 ft | 420 kts | 38° |
| 2026-05-08 13:35 | 42.22631 | 22.14968 | 22908 ft | 424 kts | 34° |
| 2026-05-08 13:36 | 42.25142 | 22.17077 | 23557 ft | 428 kts | 26° |
| 2026-05-08 13:36 | 42.27890 | 22.18600 | 24210 ft | 429 kts | 15° |
| 2026-05-08 13:36 | 42.30794 | 22.19488 | 24851 ft | 431 kts | 7° |
| 2026-05-08 13:36 | 42.33782 | 22.19879 | 25494 ft | 434 kts | 1° |
| 2026-05-08 13:37 | 42.36807 | 22.19932 | 26043 ft | 438 kts | 356° |
| 2026-05-08 13:37 | 42.39833 | 22.19459 | 26590 ft | 440 kts | 346° |
| 2026-05-08 13:37 | 42.42788 | 22.18350 | 27163 ft | 442 kts | 339° |
| 2026-05-08 13:37 | 42.45673 | 22.16900 | 27740 ft | 445 kts | 336° |
| 2026-05-08 13:38 | 42.48549 | 22.15355 | 28295 ft | 448 kts | 336° |
| 2026-05-08 13:38 | 42.51453 | 22.13768 | 28787 ft | 453 kts | 336° |
| 2026-05-08 13:38 | 42.54384 | 22.12165 | 29277 ft | 457 kts | 336° |
| 2026-05-08 13:38 | 42.57342 | 22.10561 | 29771 ft | 461 kts | 336° |
| 2026-05-08 13:39 | 42.60324 | 22.08956 | 30268 ft | 464 kts | 336° |
| 2026-05-08 13:39 | 42.63337 | 22.07345 | 30720 ft | 468 kts | 336° |
| 2026-05-08 13:39 | 42.66372 | 22.05735 | 31234 ft | 471 kts | 337° |
| 2026-05-08 13:39 | 42.69430 | 22.04115 | 31624 ft | 476 kts | 336° |
| 2026-05-08 13:40 | 42.72527 | 22.02477 | 31982 ft | 481 kts | 337° |
| 2026-05-08 13:40 | 42.75647 | 22.00831 | 32428 ft | 484 kts | 337° |
| 2026-05-08 13:40 | 42.78789 | 21.99171 | 32914 ft | 486 kts | 337° |
| 2026-05-08 13:40 | 42.81918 | 21.97516 | 33578 ft | 483 kts | 337° |
| 2026-05-08 13:41 | 42.85017 | 21.95876 | 34459 ft | 475 kts | 337° |
| 2026-05-08 13:41 | 42.88051 | 21.94271 | 35278 ft | 464 kts | 336° |
| 2026-05-08 13:41 | 42.91014 | 21.92704 | 36051 ft | 454 kts | 336° |
| 2026-05-08 13:41 | 42.93921 | 21.91166 | 36932 ft | 444 kts | 335° |
| 2026-05-08 13:42 | 42.96785 | 21.89648 | 37537 ft | 442 kts | 335° |
| 2026-05-08 13:42 | 42.99650 | 21.88123 | 37812 ft | 446 kts | 335° |
| 2026-05-08 13:42 | 43.02553 | 21.86573 | 38018 ft | 451 kts | 335° |
| 2026-05-08 13:42 | 43.05483 | 21.85006 | 38248 ft | 454 kts | 335° |
| 2026-05-08 13:43 | 43.08423 | 21.83434 | 38627 ft | 454 kts | 335° |
| 2026-05-08 13:43 | 43.11359 | 21.81864 | 39062 ft | 453 kts | 335° |
| 2026-05-08 13:43 | 43.14279 | 21.80303 | 39479 ft | 452 kts | 335° |
| 2026-05-08 13:43 | 43.17197 | 21.78741 | 39817 ft | 451 kts | 335° |
| 2026-05-08 13:44 | 43.20110 | 21.77180 | 40007 ft | 451 kts | 335° |
| 2026-05-08 13:44 | 43.23029 | 21.75615 | 40019 ft | 448 kts | 335° |
| 2026-05-08 13:44 | 43.28790 | 21.72524 | 40027 ft | 444 kts | 334° |
| 2026-05-08 13:45 | 43.34541 | 21.69426 | 40023 ft | 446 kts | 335° |
| 2026-05-08 13:45 | 43.40298 | 21.66320 | 40019 ft | 445 kts | 335° |
| 2026-05-08 13:46 | 43.46058 | 21.63205 | 40021 ft | 446 kts | 335° |
| 2026-05-08 13:46 | 43.51811 | 21.60090 | 40026 ft | 446 kts | 335° |
| 2026-05-08 13:47 | 43.57568 | 21.56966 | 40016 ft | 445 kts | 335° |
| 2026-05-08 13:47 | 43.63313 | 21.53844 | 40025 ft | 445 kts | 334° |
| 2026-05-08 13:48 | 43.69071 | 21.50707 | 40013 ft | 446 kts | 334° |
| 2026-05-08 13:48 | 43.74825 | 21.47564 | 40007 ft | 445 kts | 334° |
| 2026-05-08 13:49 | 43.80574 | 21.44418 | 40016 ft | 446 kts | 335° |
| 2026-05-08 13:49 | 43.86320 | 21.41266 | 40011 ft | 445 kts | 335° |
| 2026-05-08 13:50 | 43.92058 | 21.38114 | 40005 ft | 445 kts | 334° |
| 2026-05-08 13:50 | 43.97802 | 21.34951 | 40000 ft | 445 kts | 334° |
| 2026-05-08 13:51 | 44.03550 | 21.31782 | 39998 ft | 445 kts | 334° |
| 2026-05-08 13:51 | 44.09284 | 21.28613 | 40009 ft | 444 kts | 334° |
| 2026-05-08 13:52 | 44.15006 | 21.25441 | 39995 ft | 443 kts | 334° |
| 2026-05-08 13:52 | 44.20727 | 21.22263 | 39993 ft | 444 kts | 334° |
| 2026-05-08 13:53 | 44.26448 | 21.19081 | 39986 ft | 443 kts | 334° |
| 2026-05-08 13:53 | 44.32165 | 21.15895 | 39989 ft | 444 kts | 334° |
| 2026-05-08 13:54 | 44.37887 | 21.12697 | 39986 ft | 443 kts | 334° |
| 2026-05-08 13:54 | 44.43589 | 21.09505 | 39990 ft | 443 kts | 334° |
| 2026-05-08 13:55 | 44.49296 | 21.06304 | 39989 ft | 442 kts | 334° |
| 2026-05-08 13:56 | 44.57854 | 21.01492 | 39990 ft | 442 kts | 334° |
| 2026-05-08 13:56 | 44.63545 | 20.98282 | 39979 ft | 441 kts | 333° |
| 2026-05-08 13:57 | 44.69228 | 20.95068 | 39979 ft | 442 kts | 333° |
| 2026-05-08 13:57 | 44.74923 | 20.91839 | 39983 ft | 442 kts | 333° |
| 2026-05-08 13:58 | 44.80618 | 20.88608 | 39977 ft | 442 kts | 333° |
| 2026-05-08 13:58 | 44.86282 | 20.85388 | 39976 ft | 440 kts | 333° |
| 2026-05-08 13:59 | 44.91953 | 20.82155 | 39984 ft | 441 kts | 333° |
| 2026-05-08 13:59 | 44.97628 | 20.78913 | 39978 ft | 441 kts | 333° |
| 2026-05-08 14:00 | 45.03310 | 20.75660 | 39977 ft | 442 kts | 333° |
| 2026-05-08 14:00 | 45.08986 | 20.72405 | 39969 ft | 442 kts | 333° |
| 2026-05-08 14:01 | 45.14664 | 20.69142 | 39969 ft | 440 kts | 333° |
| 2026-05-08 14:01 | 45.20324 | 20.65881 | 39975 ft | 441 kts | 333° |
| 2026-05-08 14:02 | 45.25980 | 20.62615 | 39980 ft | 440 kts | 333° |
| 2026-05-08 14:02 | 45.31632 | 20.59344 | 39974 ft | 440 kts | 333° |
| 2026-05-08 14:03 | 45.37284 | 20.56068 | 39976 ft | 440 kts | 333° |
| 2026-05-08 14:03 | 45.42866 | 20.52659 | 39773 ft | 431 kts | 328° |
| 2026-05-08 14:03 | 45.45433 | 20.50547 | 39121 ft | 427 kts | 322° |
| 2026-05-08 14:04 | 45.47812 | 20.48039 | 38229 ft | 427 kts | 315° |
| 2026-05-08 14:04 | 45.49976 | 20.45163 | 37202 ft | 428 kts | 310° |
| 2026-05-08 14:04 | 45.51984 | 20.42061 | 36382 ft | 426 kts | 307° |
| 2026-05-08 14:04 | 45.53904 | 20.38915 | 36117 ft | 421 kts | 306° |
| 2026-05-08 14:05 | 45.55808 | 20.35739 | 35986 ft | 424 kts | 306° |
| 2026-05-08 14:05 | 45.59659 | 20.29257 | 35639 ft | 432 kts | 305° |
| 2026-05-08 14:05 | 45.61588 | 20.26013 | 35204 ft | 432 kts | 306° |
| 2026-05-08 14:06 | 45.63667 | 20.22916 | 34713 ft | 434 kts | 312° |
| 2026-05-08 14:06 | 45.65980 | 20.20155 | 34164 ft | 437 kts | 319° |
| 2026-05-08 14:06 | 45.68500 | 20.17709 | 33565 ft | 441 kts | 323° |
| 2026-05-08 14:06 | 45.71122 | 20.15430 | 32956 ft | 443 kts | 324° |
| 2026-05-08 14:07 | 45.73776 | 20.13208 | 32320 ft | 445 kts | 325° |
| 2026-05-08 14:07 | 45.76462 | 20.11043 | 31819 ft | 444 kts | 328° |
| 2026-05-08 14:07 | 45.79332 | 20.09399 | 31538 ft | 451 kts | 341° |
| 2026-05-08 14:07 | 45.82460 | 20.08792 | 31272 ft | 459 kts | 353° |
| 2026-05-08 14:08 | 45.85644 | 20.08683 | 31006 ft | 458 kts | 356° |
| 2026-05-08 14:08 | 45.88797 | 20.08754 | 30681 ft | 450 kts | 358° |
| 2026-05-08 14:08 | 45.91883 | 20.08883 | 30228 ft | 442 kts | 358° |
| 2026-05-08 14:08 | 45.94936 | 20.09015 | 29731 ft | 440 kts | 358° |
| 2026-05-08 14:09 | 45.98005 | 20.09126 | 29201 ft | 444 kts | 357° |
| 2026-05-08 14:09 | 46.01078 | 20.09213 | 28666 ft | 440 kts | 357° |
| 2026-05-08 14:09 | 46.04107 | 20.09281 | 28133 ft | 433 kts | 357° |
| 2026-05-08 14:09 | 46.07093 | 20.09333 | 27613 ft | 427 kts | 356° |
| 2026-05-08 14:10 | 46.10033 | 20.09371 | 27090 ft | 421 kts | 356° |
| 2026-05-08 14:10 | 46.12932 | 20.09333 | 26563 ft | 415 kts | 354° |
| 2026-05-08 14:10 | 46.15775 | 20.09028 | 26036 ft | 406 kts | 348° |
| 2026-05-08 14:10 | 46.18519 | 20.08244 | 25529 ft | 403 kts | 342° |
| 2026-05-08 14:11 | 46.21209 | 20.07097 | 25019 ft | 404 kts | 338° |
| 2026-05-08 14:11 | 46.23843 | 20.05789 | 24497 ft | 399 kts | 337° |
| 2026-05-08 14:11 | 46.26426 | 20.04433 | 23994 ft | 392 kts | 336° |
| 2026-05-08 14:11 | 46.28955 | 20.03088 | 23497 ft | 386 kts | 336° |
| 2026-05-08 14:12 | 46.31447 | 20.01763 | 23009 ft | 380 kts | 336° |
| 2026-05-08 14:12 | 46.33909 | 20.00459 | 22525 ft | 379 kts | 336° |
| 2026-05-08 14:12 | 46.36406 | 19.99141 | 22021 ft | 384 kts | 337° |
| 2026-05-08 14:12 | 46.38906 | 19.97829 | 21517 ft | 381 kts | 337° |
| 2026-05-08 14:13 | 46.41373 | 19.96542 | 21021 ft | 375 kts | 338° |
| 2026-05-08 14:13 | 46.43806 | 19.95275 | 20522 ft | 370 kts | 338° |
| 2026-05-08 14:13 | 46.46209 | 19.94024 | 20031 ft | 365 kts | 338° |
| 2026-05-08 14:13 | 46.48606 | 19.92774 | 19537 ft | 369 kts | 338° |
| 2026-05-08 14:14 | 46.51027 | 19.91510 | 19031 ft | 369 kts | 338° |
| 2026-05-08 14:14 | 46.53424 | 19.90259 | 18521 ft | 364 kts | 338° |
| 2026-05-08 14:14 | 46.55797 | 19.89019 | 18017 ft | 359 kts | 338° |
| 2026-05-08 14:14 | 46.58128 | 19.87801 | 17517 ft | 355 kts | 339° |
| 2026-05-08 14:15 | 46.60431 | 19.86597 | 17028 ft | 351 kts | 339° |
| 2026-05-08 14:15 | 46.62735 | 19.85390 | 16537 ft | 356 kts | 339° |
| 2026-05-08 14:15 | 46.65059 | 19.84173 | 16035 ft | 354 kts | 339° |
| 2026-05-08 14:15 | 46.67356 | 19.82969 | 15534 ft | 350 kts | 339° |
| 2026-05-08 14:16 | 46.69629 | 19.81778 | 15040 ft | 345 kts | 339° |
| 2026-05-08 14:16 | 46.71871 | 19.80603 | 14552 ft | 341 kts | 339° |
| 2026-05-08 14:16 | 46.74091 | 19.79437 | 14071 ft | 339 kts | 339° |
| 2026-05-08 14:16 | 46.76321 | 19.78262 | 13581 ft | 343 kts | 339° |
| 2026-05-08 14:17 | 46.78563 | 19.77081 | 13087 ft | 341 kts | 339° |
| 2026-05-08 14:17 | 46.80783 | 19.75911 | 12598 ft | 337 kts | 340° |
| 2026-05-08 14:17 | 46.82973 | 19.74756 | 12116 ft | 333 kts | 340° |
| 2026-05-08 14:17 | 46.85133 | 19.73617 | 11638 ft | 329 kts | 339° |
| 2026-05-08 14:18 | 46.87264 | 19.72491 | 11168 ft | 325 kts | 339° |
| 2026-05-08 14:18 | 46.89374 | 19.71375 | 10693 ft | 321 kts | 339° |
| 2026-05-08 14:18 | 46.91451 | 19.70277 | 10376 ft | 313 kts | 339° |
| 2026-05-08 14:18 | 46.93455 | 19.69216 | 10241 ft | 299 kts | 339° |
| 2026-05-08 14:19 | 46.95361 | 19.68207 | 10140 ft | 285 kts | 340° |
| 2026-05-08 14:19 | 46.97193 | 19.67237 | 9959 ft | 276 kts | 340° |
| 2026-05-08 14:19 | 46.98990 | 19.66282 | 9589 ft | 275 kts | 340° |
| 2026-05-08 14:19 | 47.00785 | 19.65327 | 9210 ft | 274 kts | 340° |
| 2026-05-08 14:20 | 47.02573 | 19.64377 | 8846 ft | 273 kts | 340° |
| 2026-05-08 14:20 | 47.04349 | 19.63433 | 8488 ft | 271 kts | 340° |
| 2026-05-08 14:20 | 47.06114 | 19.62493 | 8128 ft | 269 kts | 340° |
| 2026-05-08 14:20 | 47.07865 | 19.61560 | 7775 ft | 268 kts | 340° |
| 2026-05-08 14:21 | 47.09609 | 19.60631 | 7423 ft | 266 kts | 340° |
| 2026-05-08 14:21 | 47.11345 | 19.59705 | 7073 ft | 264 kts | 340° |
| 2026-05-08 14:21 | 47.13067 | 19.58785 | 6725 ft | 263 kts | 340° |
| 2026-05-08 14:21 | 47.14777 | 19.57870 | 6381 ft | 261 kts | 340° |
| 2026-05-08 14:22 | 47.16476 | 19.56960 | 6038 ft | 259 kts | 340° |
| 2026-05-08 14:22 | 47.18152 | 19.56063 | 5779 ft | 253 kts | 340° |
| 2026-05-08 14:22 | 47.19793 | 19.55184 | 5565 ft | 247 kts | 340° |
| 2026-05-08 14:22 | 47.21386 | 19.54330 | 5352 ft | 241 kts | 340° |
| 2026-05-08 14:23 | 47.22943 | 19.53495 | 5141 ft | 235 kts | 340° |
| 2026-05-08 14:23 | 47.24475 | 19.52672 | 4882 ft | 233 kts | 340° |
| 2026-05-08 14:23 | 47.25997 | 19.51854 | 4602 ft | 231 kts | 340° |
| 2026-05-08 14:23 | 47.27498 | 19.51047 | 4356 ft | 229 kts | 340° |
| 2026-05-08 14:24 | 47.28975 | 19.50221 | 4117 ft | 225 kts | 336° |
| 2026-05-08 14:24 | 47.30284 | 19.48993 | 3855 ft | 224 kts | 317° |
| 2026-05-08 14:24 | 47.31319 | 19.47282 | 3554 ft | 225 kts | 310° |
| 2026-05-08 14:24 | 47.32296 | 19.45489 | 3267 ft | 224 kts | 310° |
| 2026-05-08 14:25 | 47.33296 | 19.43766 | 2967 ft | 219 kts | 313° |
| 2026-05-08 14:25 | 47.34319 | 19.42158 | 2690 ft | 211 kts | 315° |
| 2026-05-08 14:25 | 47.35303 | 19.40609 | 2412 ft | 205 kts | 313° |
| 2026-05-08 14:25 | 47.36224 | 19.39115 | 2140 ft | 188 kts | 313° |
| 2026-05-08 14:26 | 47.37068 | 19.37759 | 1903 ft | 172 kts | 314° |
| 2026-05-08 14:26 | 47.37842 | 19.36528 | 1701 ft | 155 kts | 314° |
| 2026-05-08 14:26 | 47.38542 | 19.35402 | 1473 ft | 142 kts | 313° |
| 2026-05-08 14:26 | 47.39181 | 19.34373 | 1302 ft | 131 kts | 312° |
| 2026-05-08 14:27 | 47.39793 | 19.33384 | 1139 ft | 130 kts | 312° |
| 2026-05-08 14:27 | 47.40403 | 19.32401 | 974 ft | 130 kts | 312° |
| 2026-05-08 14:27 | 47.41014 | 19.31416 | 822 ft | 130 kts | 311° |
| 2026-05-08 14:27 | 47.41638 | 19.30425 | 649 ft | 131 kts | 312° |
| 2026-05-08 14:28 | 47.42263 | 19.29438 | 476 ft | 131 kts | 311° |
| 2026-05-08 14:28 | 47.42861 | 19.28469 | 426 ft | 116 kts | 310° |
| 2026-05-08 14:28 | 47.43245 | 19.27848 | 443 ft | 42 kts | 312° |
| 2026-05-08 14:28 | 47.43355 | 19.27500 | 452 ft | 36 kts | 283° |
| 2026-05-08 14:29 | 47.43397 | 19.27208 | 461 ft | 23 kts | 281° |
| 2026-05-08 14:29 | 47.43420 | 19.27052 | 464 ft | 10 kts | 283° |
| 2026-05-08 14:29 | 47.43449 | 19.26964 | 466 ft | 8 kts | 309° |
| 2026-05-08 14:29 | 47.43493 | 19.26891 | 468 ft | 11 kts | 311° |
| 2026-05-08 14:30 | 47.43561 | 19.26781 | 471 ft | 17 kts | 312° |
| 2026-05-08 14:30 | 47.43647 | 19.26639 | 474 ft | 18 kts | 312° |
| 2026-05-08 14:30 | 47.43730 | 19.26509 | 476 ft | 13 kts | 311° |
| 2026-05-08 14:30 | 47.43738 | 19.26399 | 477 ft | 11 kts | 228° |
| 2026-05-08 14:31 | 47.43679 | 19.26306 | 477 ft | 14 kts | 246° |
| 2026-05-08 14:31 | 47.43674 | 19.26145 | 477 ft | 16 kts | 268° |
| 2026-05-08 14:31 | 47.43625 | 19.26008 | 476 ft | 15 kts | 220° |
| 2026-05-08 14:32 | 47.43561 | 19.25886 | 474 ft | 5 kts | 310° |
| 2026-05-08 14:32 | 47.43581 | 19.25855 | 474 ft | 0 kts | 311° |